Nearby METAR Reports

 

KCRG - Jacksonvil/Craig, Florida, USA
Distance from station: S 4mi, 6km
Updated: Fri, 27-Nov-2020 1:53am EST
Clear
Clear
 Wind from calm
Wind: Calm
Temperature: 64°F , 18°C
Dew Point: 63°F , 17°C
Humidity: 94%
Barometer: 30.10 inHg , 1019.3 hPa
Clouds: Clear
Visibility: 9 miles , 14 km
2020/11/27 06:53 KCRG 270653Z AUTO 00000KT 9SM CLR 18/17 A3010 RMK AO2 SLP191 T01830167
KNRB - Mayport Nas, Florida, USA
Distance from station: E 6mi, 10km
Updated: Fri, 27-Nov-2020 1:52am EST
Clear
Clear
 Wind from calm
Wind: Calm
Temperature: 66°F , 19°C
Dew Point: 64°F , 18°C
Humidity: 94%
Barometer: 30.09 inHg , 1019 hPa
Clouds: Clear
Visibility: 10 miles , 16 km
2020/11/27 06:52 KNRB 270652Z AUTO 00000KT 10SM CLR 19/18 A3009 RMK AO2 SLP190 T01940183
 
KJAX - Jacksonville, Florida, USA
Distance from station: NW 13mi, 20km
Updated: Fri, 27-Nov-2020 1:56am EST
Few Clouds
Few Clouds
 Wind from calm
Wind: Calm
Temperature: 61°F , 16°C
Dew Point: 61°F , 16°C
Humidity: 100%
Barometer: 30.09 inHg , 1019 hPa
Clouds: Few Clouds
Visibility: 10 miles , 16 km
Cloud details: Few Clouds 21000 ft
2020/11/27 06:56 KJAX 270656Z 00000KT 10SM FEW210 16/16 A3009 RMK AO2 SLP190 T01560156
KNIP - Jacksonville Nas, Florida, USA
Distance from station: SW 15mi, 24km
Updated: Fri, 27-Nov-2020 1:53am EST
Partly cloudy
Partly cloudy
 Wind from calm
Wind: Calm
Temperature: 66°F , 19°C
Dew Point: 63°F , 17°C
Humidity: 88%
Barometer: 30.10 inHg , 1019.3 hPa
Clouds: Partly cloudy
Visibility: 10 miles , 16 km
Cloud details: Few Clouds 1500 ft
Partly cloudy 20000 ft
2020/11/27 06:53 KNIP 270653Z 00000KT 10SM FEW015 SCT200 19/17 A3010 RMK AO2 SLP189 T01940172
 
KFHB - Fernandina Beach, Florida, USA
Distance from station: N 16mi, 26km
Updated: Fri, 27-Nov-2020 1:55am EST
Clear
Clear
 Wind from calm
Wind: Calm
Temperature: 64°F , 18°C
Barometer: 30.10 inHg , 1019.3 hPa
Clouds: Clear
Visibility: 10 miles , 16 km
2020/11/27 06:55 KFHB 270655Z AUTO 00000KT 10SM CLR 18/ A3010 RMK AO2 T0175////
KVQQ - Jacksonvil/Cecil, Florida, USA
Distance from station: WSW 25mi, 40km
Updated: Fri, 27-Nov-2020 2:15am EST

 Wind from calm
Wind: Calm
Temperature: 59°F , 15°C
Dew Point: 57°F , 14°C
Humidity: 94%
Barometer: 30.10 inHg , 1019.3 hPa
2020/11/27 07:15 KVQQ 270715Z AUTO 00000KT 15/14 A3010 RMK AO2
 
KSGJ - St Augustine, Florida, USA
Distance from station: SSE 31mi, 51km
Updated: Fri, 27-Nov-2020 1:56am EST
Clear
Clear
 Wind from SW
Wind: SW 6 mph , 9 km/h
Temperature: 68°F , 20°C
Dew Point: 66°F , 19°C
Humidity: 94%
Barometer: 30.11 inHg , 1019.6 hPa
Clouds: Clear
Visibility: 10 miles , 16 km
2020/11/27 06:56 KSGJ 270656Z AUTO 23005KT 10SM CLR 20/19 A3011 RMK AO2 SLP196 T02000189 $
K42J - Keystone Heights, Florida, USA
Distance from station: SW 49mi, 79km
Updated: Fri, 27-Nov-2020 1:55am EST
Overcast
Overcast
 Wind from ESE
Wind: ESE 3 mph , 6 km/h
Temperature: 61°F , 16°C
Dew Point: 61°F , 16°C
Humidity: 100%
Barometer: 30.10 inHg , 1019.3 hPa
Clouds: Overcast
Visibility: 9 miles , 14 km
Cloud details: Overcast 3100 ft
2020/11/27 06:55 K42J 270655Z AUTO 12003KT 9SM OVC031 16/16 A3010 RMK A01 TSNO